createdAt,value
2018-09-17T00:01:43.817Z,8.23
2018-09-17T00:04:12.373Z,5.23
2018-09-17T00:06:40.905Z,7.93
2018-09-17T00:09:10.942Z,6.77
2018-09-17T00:11:39.578Z,8.40
2018-09-17T00:14:08.089Z,8.33
2018-09-17T00:16:36.998Z,8.53
2018-09-17T00:19:05.761Z,7.30
2018-09-17T00:21:34.711Z,6.10
2018-09-17T00:24:03.242Z,6.78
2018-09-17T00:26:31.808Z,7.50
2018-09-17T00:29:00.346Z,5.60
2018-09-17T00:31:28.875Z,5.97
2018-09-17T00:33:57.775Z,6.33
2018-09-17T00:36:26.326Z,4.73
2018-09-17T00:38:54.833Z,10.90
2018-09-17T00:41:23.373Z,5.80
2018-09-17T00:43:51.892Z,8.23
2018-09-17T00:46:20.442Z,5.80
2018-09-17T00:48:48.996Z,5.20
2018-09-17T00:51:18.125Z,4.13
2018-09-17T00:53:46.646Z,9.07
2018-09-17T00:56:15.478Z,11.40
2018-09-17T00:58:43.994Z,7.40
2018-09-17T01:01:12.549Z,3.63
2018-09-17T01:03:41.067Z,6.43
2018-09-17T01:06:09.598Z,11.23
2018-09-17T01:08:38.118Z,4.97
2018-09-17T01:11:06.681Z,13.33
2018-09-17T01:13:35.198Z,7.30
2018-09-17T01:16:03.725Z,8.53
2018-09-17T01:18:32.261Z,5.33
2018-09-17T01:21:00.821Z,6.53
2018-09-17T01:23:29.330Z,9.43
2018-09-17T01:25:57.845Z,7.30
2018-09-17T01:28:26.345Z,8.10
2018-09-17T01:30:54.865Z,4.43
2018-09-17T01:33:23.861Z,2.97
2018-09-17T01:35:52.373Z,5.73
2018-09-17T01:38:20.930Z,6.53
2018-09-17T01:40:49.473Z,7.07
2018-09-17T01:43:18.570Z,7.23
2018-09-17T01:45:47.158Z,6.20
2018-09-17T01:48:15.670Z,8.67
2018-09-17T01:50:44.191Z,6.13
2018-09-17T01:53:12.715Z,6.87
2018-09-17T01:55:41.237Z,4.27
2018-09-17T01:58:09.783Z,5.37
2018-09-17T02:00:38.290Z,5.00
2018-09-17T02:03:07.023Z,7.67
2018-09-17T02:05:35.526Z,5.33
2018-09-17T02:08:04.097Z,5.13
2018-09-17T02:10:32.593Z,7.13
2018-09-17T02:13:01.087Z,3.97
2018-09-17T02:15:29.605Z,7.43
2018-09-17T02:17:58.113Z,11.50
2018-09-17T02:20:26.685Z,3.57
2018-09-17T02:22:55.249Z,5.83
2018-09-17T02:25:23.909Z,6.33
2018-09-17T02:27:52.457Z,6.30
2018-09-17T02:30:21.022Z,6.60
2018-09-17T02:32:49.538Z,7.27
2018-09-17T02:35:18.054Z,6.47
2018-09-17T02:37:46.570Z,6.00
2018-09-17T02:40:16.597Z,8.07
2018-09-17T02:42:47.077Z,7.47
2018-09-17T02:45:15.581Z,4.07
2018-09-17T02:47:44.201Z,7.70
2018-09-17T02:50:12.742Z,4.23
2018-09-17T02:52:41.326Z,10.43
2018-09-17T02:55:10.210Z,9.03
2018-09-17T02:57:38.924Z,4.40
2018-09-17T03:00:08.853Z,6.87
2018-09-17T03:02:37.914Z,5.83
2018-09-17T03:05:06.581Z,9.63
2018-09-17T03:07:35.077Z,6.30
2018-09-17T03:10:03.655Z,7.03
2018-09-17T03:12:32.175Z,7.50
2018-09-17T03:15:10.736Z,7.13
2018-09-17T03:17:39.245Z,6.37
2018-09-17T03:20:07.780Z,9.03
2018-09-17T03:24:00.778Z,10.23
2018-09-17T03:26:29.289Z,13.13
2018-09-17T03:28:57.786Z,8.83
2018-09-17T03:31:26.313Z,11.10
2018-09-17T03:33:54.922Z,9.03
2018-09-17T03:36:23.421Z,9.33
2018-09-17T03:38:51.938Z,10.37
2018-09-17T03:41:20.799Z,7.27
2018-09-17T03:43:51.438Z,5.77
2018-09-17T03:46:19.964Z,9.57
2018-09-17T03:48:48.493Z,10.10
2018-09-17T03:51:17.390Z,6.47
2018-09-17T03:53:45.893Z,13.43
2018-09-17T03:56:14.421Z,8.07
2018-09-17T03:58:42.925Z,10.23
2018-09-17T04:01:11.445Z,6.23
2018-09-17T04:03:39.961Z,8.47
2018-09-17T04:06:08.501Z,8.73
2018-09-17T04:08:37.022Z,6.80
2018-09-17T04:11:05.533Z,9.40
2018-09-17T04:13:34.102Z,9.20
2018-09-17T04:16:02.627Z,9.37
2018-09-17T04:18:31.145Z,10.50
2018-09-17T04:20:59.670Z,8.90
2018-09-17T04:23:37.079Z,7.10
2018-09-17T04:26:08.937Z,9.87
2018-09-17T04:28:38.042Z,10.20
2018-09-17T04:31:06.897Z,10.83
2018-09-17T04:33:38.135Z,11.50
2018-09-17T04:36:06.954Z,8.67
2018-09-17T04:38:35.501Z,10.70
2018-09-17T04:41:04.141Z,9.83
2018-09-17T04:43:33.223Z,7.77
2018-09-17T04:46:02.050Z,10.53
2018-09-17T04:48:30.693Z,8.63
2018-09-17T04:50:59.237Z,9.97
2018-09-17T04:53:27.826Z,14.47
2018-09-17T04:55:56.363Z,7.57
2018-09-17T04:58:24.885Z,9.77
2018-09-17T05:00:53.416Z,13.53
2018-09-17T05:03:22.009Z,9.53
2018-09-17T05:05:50.785Z,8.87
2018-09-17T05:08:19.333Z,9.17
2018-09-17T05:10:47.854Z,9.97
2018-09-17T05:13:16.461Z,16.60
2018-09-17T05:15:44.940Z,8.40
2018-09-17T05:18:13.494Z,7.77
2018-09-17T05:20:42.078Z,8.80
2018-09-17T05:23:10.601Z,10.17
2018-09-17T05:25:39.097Z,9.30
2018-09-17T05:28:07.611Z,7.77
2018-09-17T05:30:36.148Z,9.53
2018-09-17T05:33:04.742Z,13.13
2018-09-17T05:35:33.306Z,11.50
2018-09-17T05:38:01.874Z,12.80
2018-09-17T05:40:30.777Z,10.57
2018-09-17T05:42:59.880Z,9.37
2018-09-17T05:45:28.485Z,8.23
2018-09-17T05:47:56.997Z,11.53
2018-09-17T05:50:25.506Z,8.60
2018-09-17T05:52:54.009Z,8.68
2018-09-17T05:55:22.628Z,9.20
2018-09-17T05:57:51.153Z,10.40
2018-09-17T06:00:19.675Z,10.77
2018-09-17T06:02:48.186Z,10.77
2018-09-17T06:05:16.690Z,11.27
2018-09-17T06:07:45.201Z,10.03
2018-09-17T06:10:16.730Z,13.67
2018-09-17T06:12:47.057Z,13.00
2018-09-17T06:15:16.101Z,11.50
2018-09-17T06:17:44.610Z,13.67
2018-09-17T06:20:13.153Z,11.73
2018-09-17T06:22:41.673Z,11.43
2018-09-17T06:25:10.197Z,10.10
2018-09-17T06:27:38.711Z,10.43
2018-09-17T06:30:07.335Z,18.27
2018-09-17T06:32:35.914Z,16.57
2018-09-17T06:35:04.468Z,12.40
2018-09-17T06:37:33.012Z,15.83
2018-09-17T06:40:01.535Z,13.47
2018-09-17T06:42:30.074Z,9.53
2018-09-17T06:44:58.671Z,13.93
2018-09-17T06:47:27.186Z,15.67
2018-09-17T06:49:55.694Z,13.90
2018-09-17T06:52:24.230Z,13.00
2018-09-17T06:54:52.766Z,14.67
2018-09-17T06:57:21.304Z,12.30
2018-09-17T06:59:49.813Z,14.80
2018-09-17T07:02:18.357Z,14.37
2018-09-17T07:04:46.901Z,15.63
2018-09-17T07:07:15.413Z,12.83
2018-09-17T07:09:44.085Z,12.53
2018-09-17T07:12:12.793Z,14.83
2018-09-17T07:14:41.309Z,14.23
2018-09-17T07:17:09.842Z,14.13
2018-09-17T07:19:38.359Z,14.93
2018-09-17T07:22:06.921Z,12.63
2018-09-17T07:24:35.425Z,13.77
2018-09-17T07:27:03.941Z,13.20
2018-09-17T07:29:32.453Z,17.43
2018-09-17T07:32:00.974Z,12.40
2018-09-17T07:34:29.537Z,12.80
2018-09-17T07:36:58.221Z,11.97
2018-09-17T07:39:26.740Z,10.40
2018-09-17T07:41:55.327Z,13.00
2018-09-17T07:44:23.879Z,14.57
2018-09-17T07:46:52.437Z,14.87
2018-09-17T07:49:20.970Z,14.67
2018-09-17T07:51:49.489Z,12.23
2018-09-17T07:54:18.035Z,9.33
2018-09-17T07:56:46.804Z,11.30
2018-09-17T07:59:15.347Z,12.17
2018-09-17T08:01:43.860Z,11.70
2018-09-17T08:04:12.413Z,13.43
2018-09-17T08:06:40.961Z,11.57
2018-09-17T08:09:11.726Z,10.73
2018-09-17T08:11:40.680Z,10.60
2018-09-17T08:15:38.462Z,11.60
2018-09-17T08:18:07.022Z,15.87
2018-09-17T08:20:35.605Z,9.30
2018-09-17T08:23:04.149Z,9.47
2018-09-17T08:25:33.170Z,13.23
2018-09-17T08:28:01.801Z,8.73
2018-09-17T08:30:30.365Z,12.13
2018-09-17T08:32:59.117Z,15.00
2018-09-17T08:35:28.314Z,13.57
2018-09-17T08:37:56.946Z,10.93
2018-09-17T08:40:25.494Z,9.97
2018-09-17T08:42:54.015Z,10.67
2018-09-17T08:45:22.577Z,11.63
2018-09-17T08:47:51.489Z,9.87
2018-09-17T08:50:19.998Z,11.73
2018-09-17T08:52:48.554Z,15.67
2018-09-17T08:55:22.915Z,13.30
2018-09-17T08:57:56.381Z,14.17
2018-09-17T09:00:30.766Z,13.70
2018-09-17T09:03:04.574Z,16.63
2018-09-17T09:05:39.559Z,14.10
2018-09-17T09:08:08.676Z,16.67
2018-09-17T09:10:43.181Z,12.67
2018-09-17T09:13:15.937Z,15.33
2018-09-17T09:15:45.030Z,16.40
2018-09-17T09:18:13.633Z,14.50
2018-09-17T09:20:42.249Z,15.67
2018-09-17T09:23:10.932Z,16.00
2018-09-17T09:25:39.542Z,16.67
2018-09-17T09:28:08.094Z,15.67
2018-09-17T09:30:37.267Z,15.47
2018-09-17T09:33:05.789Z,14.83
2018-09-17T09:35:34.305Z,13.87
2018-09-17T09:38:03.017Z,13.00
2018-09-17T09:40:31.529Z,15.57
2018-09-17T09:43:00.091Z,16.63
2018-09-17T09:45:28.617Z,12.17
2018-09-17T09:47:57.122Z,12.03
2018-09-17T09:50:25.641Z,16.57
2018-09-17T09:52:54.170Z,13.27
2018-09-17T09:55:22.726Z,10.97
2018-09-17T09:57:51.239Z,10.90
2018-09-17T10:00:25.002Z,12.63
2018-09-17T10:02:58.792Z,16.63
2018-09-17T10:05:27.362Z,12.17
2018-09-17T10:07:55.919Z,13.40
2018-09-17T10:10:29.770Z,14.03
2018-09-17T10:13:03.491Z,11.50
2018-09-17T10:15:40.089Z,13.63
2018-09-17T10:18:13.985Z,9.60
2018-09-17T10:20:42.525Z,12.07
2018-09-17T10:23:11.120Z,10.33
2018-09-17T10:25:39.713Z,11.97
2018-09-17T10:28:08.259Z,11.83
2018-09-17T10:30:36.801Z,11.00
2018-09-17T10:33:05.342Z,11.90
2018-09-17T10:35:33.894Z,13.87
2018-09-17T10:38:02.582Z,10.40
2018-09-17T10:40:31.110Z,8.23
2018-09-17T10:42:59.645Z,11.23
2018-09-17T10:45:28.193Z,12.63
2018-09-17T10:47:56.805Z,7.67
2018-09-17T10:50:25.476Z,5.63
2018-09-17T10:54:18.494Z,4.60
2018-09-17T10:56:47.126Z,6.60
2018-09-17T10:59:15.666Z,5.60
2018-09-17T11:01:44.244Z,5.40
2018-09-17T11:04:12.796Z,5.60
2018-09-17T11:06:41.383Z,3.67
2018-09-17T11:09:11.645Z,8.27
2018-09-17T11:11:41.055Z,6.00
2018-09-17T11:14:09.929Z,9.33
2018-09-17T11:16:38.465Z,11.70
2018-09-17T11:19:07.876Z,7.50
2018-09-17T11:21:36.377Z,8.77
2018-09-17T11:24:04.873Z,7.03
2018-09-17T11:26:33.428Z,6.57
2018-09-17T11:29:02.006Z,8.27
2018-09-17T11:31:30.600Z,5.55
2018-09-17T11:33:59.101Z,7.10
2018-09-17T11:36:27.630Z,6.27
2018-09-17T11:38:56.242Z,5.07
2018-09-17T11:41:24.750Z,8.10
2018-09-17T11:43:53.271Z,6.50
2018-09-17T11:46:21.773Z,4.55
2018-09-17T11:48:50.302Z,4.30
2018-09-17T11:51:18.833Z,7.47
2018-09-17T11:53:47.392Z,6.80
2018-09-17T11:56:16.029Z,8.80
2018-09-17T11:58:44.574Z,3.62
2018-09-17T12:01:18.461Z,4.12
2018-09-17T12:03:52.242Z,2.58
2018-09-17T12:06:26.024Z,5.97
2018-09-17T12:08:54.557Z,5.33
2018-09-17T12:11:23.543Z,7.22
2018-09-17T12:13:52.174Z,5.42
2018-09-17T12:16:20.689Z,5.17
2018-09-17T12:18:49.212Z,6.03
2018-09-17T12:21:18.010Z,6.12
2018-09-17T12:23:46.523Z,5.92
2018-09-17T12:26:15.055Z,4.58
2018-09-17T12:28:43.581Z,3.83
2018-09-17T12:31:12.106Z,4.97
2018-09-17T12:33:40.722Z,6.50
2018-09-17T12:36:09.210Z,4.60
2018-09-17T12:38:38.003Z,13.53
2018-09-17T12:41:06.876Z,3.30
2018-09-17T12:43:35.420Z,7.75
2018-09-17T12:46:03.946Z,6.20
2018-09-17T12:48:32.561Z,6.72
2018-09-17T12:51:01.401Z,4.30
2018-09-17T12:53:29.934Z,2.30
2018-09-17T12:55:58.459Z,4.22
2018-09-17T12:58:27.146Z,4.80
2018-09-17T13:00:56.285Z,7.33
2018-09-17T13:03:24.844Z,4.35
2018-09-17T13:05:53.741Z,6.90
2018-09-17T13:08:22.385Z,3.00
2018-09-17T13:10:51.323Z,5.15
2018-09-17T13:13:20.278Z,3.37
2018-09-17T13:15:55.262Z,3.77
2018-09-17T13:18:25.341Z,7.47
2018-09-17T13:20:54.469Z,2.55
2018-09-17T13:23:23.024Z,5.17
2018-09-17T13:25:51.581Z,3.08
2018-09-17T13:28:20.082Z,4.53
2018-09-17T13:30:48.622Z,2.92
2018-09-17T13:33:17.168Z,4.15
2018-09-17T13:35:45.705Z,5.92
2018-09-17T13:38:14.233Z,5.67
2018-09-17T13:40:42.745Z,4.10
2018-09-17T13:43:11.278Z,4.60
2018-09-17T13:45:39.887Z,11.78
2018-09-17T13:48:08.405Z,7.05
2018-09-17T13:50:37.025Z,10.55
2018-09-17T13:53:05.637Z,5.25
2018-09-17T13:55:34.092Z,5.00
2018-09-17T13:58:02.602Z,5.43
2018-09-17T14:00:31.133Z,7.15
2018-09-17T14:02:59.986Z,7.00
2018-09-17T14:05:28.518Z,7.10
2018-09-17T14:07:57.019Z,5.22
2018-09-17T14:10:25.627Z,8.10
2018-09-17T14:12:54.167Z,10.63
2018-09-17T14:15:22.730Z,7.83
2018-09-17T14:17:51.264Z,8.00
2018-09-17T14:20:20.261Z,9.87
2018-09-17T14:22:48.882Z,8.50
2018-09-17T14:25:17.885Z,10.55
2018-09-17T14:27:46.494Z,14.05
2018-09-17T14:30:15.042Z,7.87
2018-09-17T14:32:48.871Z,8.18
2018-09-17T14:35:17.377Z,8.53
2018-09-17T14:37:45.922Z,7.77
2018-09-17T14:40:14.465Z,9.23
2018-09-17T14:42:42.977Z,6.62
2018-09-17T14:45:11.559Z,5.05
2018-09-17T14:47:40.130Z,5.25
2018-09-17T14:50:08.708Z,6.37
2018-09-17T14:52:37.242Z,5.63
2018-09-17T14:55:05.822Z,4.10
2018-09-17T14:57:34.317Z,4.05
2018-09-17T15:00:02.967Z,4.55
2018-09-17T15:02:31.542Z,10.93
2018-09-17T15:05:00.061Z,6.30
2018-09-17T15:07:28.594Z,4.67
2018-09-17T15:09:57.148Z,4.58
2018-09-17T15:12:25.782Z,5.45
2018-09-17T15:14:54.446Z,5.37
2018-09-17T15:17:23.046Z,4.33
2018-09-17T15:19:51.568Z,5.30
2018-09-17T15:22:22.472Z,5.70
2018-09-17T15:24:51.691Z,3.33
2018-09-17T15:27:20.315Z,3.50
2018-09-17T15:29:51.222Z,5.30
2018-09-17T15:32:24.783Z,4.40
2018-09-17T15:34:54.410Z,4.90
2018-09-17T15:37:28.176Z,6.67
2018-09-17T15:40:00.897Z,5.20
2018-09-17T15:42:48.390Z,7.47
2018-09-17T15:48:48.008Z,4.23
2018-09-17T15:51:35.914Z,2.62
2018-09-17T15:54:06.485Z,3.95
2018-09-17T15:56:44.674Z,3.15
2018-09-17T15:59:38.448Z,5.58
2018-09-17T16:02:10.574Z,3.65
2018-09-17T16:04:47.512Z,2.80
2018-09-17T16:07:16.017Z,6.03
2018-09-17T16:09:44.637Z,3.67
2018-09-17T16:12:13.342Z,4.20
2018-09-17T16:14:42.082Z,6.17
2018-09-17T16:17:10.615Z,4.97
2018-09-17T16:19:39.136Z,5.37
2018-09-17T16:22:07.673Z,7.50
2018-09-17T16:24:36.193Z,4.23
2018-09-17T16:27:05.177Z,4.73
2018-09-17T16:29:33.689Z,2.85
2018-09-17T16:32:02.221Z,3.50
2018-09-17T16:34:31.133Z,3.53
2018-09-17T16:36:59.643Z,3.83
2018-09-17T16:39:28.145Z,3.72
2018-09-17T16:41:59.152Z,3.97
2018-09-17T16:44:29.449Z,2.63
2018-09-17T16:47:00.727Z,7.03
2018-09-17T16:49:31.546Z,4.27
2018-09-17T16:52:03.593Z,5.13
2018-09-17T16:54:32.127Z,6.90
2018-09-17T16:57:00.674Z,6.67
2018-09-17T16:59:29.230Z,7.17
2018-09-17T17:02:01.716Z,3.65
2018-09-17T17:04:33.853Z,5.10
2018-09-17T17:07:04.509Z,5.70
2018-09-17T17:09:34.561Z,4.50
2018-09-17T17:12:03.165Z,5.60
2018-09-17T17:14:34.387Z,4.30
2018-09-17T17:17:09.736Z,5.83
2018-09-17T17:19:41.553Z,10.30
2018-09-17T17:22:18.926Z,3.73
2018-09-17T17:24:49.255Z,8.50
2018-09-17T17:27:25.279Z,7.67
2018-09-17T17:30:02.913Z,7.90
2018-09-17T17:32:33.534Z,4.60
2018-09-17T17:35:10.548Z,5.93
2018-09-17T17:37:55.434Z,6.63
2018-09-17T17:40:30.211Z,3.90
2018-09-17T17:43:08.002Z,4.23
2018-09-17T17:45:36.564Z,6.57
2018-09-17T17:48:06.890Z,4.60
2018-09-17T17:50:37.438Z,8.23
2018-09-17T17:53:06.203Z,3.37
2018-09-17T17:55:37.519Z,4.37
2018-09-17T17:58:14.409Z,6.03
2018-09-17T18:00:47.004Z,4.73
2018-09-17T18:03:16.135Z,8.77
2018-09-17T18:05:45.141Z,6.15
2018-09-17T18:08:14.429Z,5.97
2018-09-17T18:10:47.525Z,7.23
2018-09-17T18:13:25.176Z,5.53
2018-09-17T18:15:56.976Z,5.13
2018-09-17T18:18:25.551Z,6.53
2018-09-17T18:20:55.039Z,9.20
2018-09-17T18:23:23.699Z,5.10
2018-09-17T18:25:52.691Z,10.83
2018-09-17T18:28:21.239Z,8.63
2018-09-17T18:30:49.954Z,5.77
2018-09-17T18:33:18.619Z,8.13
2018-09-17T18:35:47.357Z,5.23
2018-09-17T18:38:16.401Z,6.70
2018-09-17T18:40:45.431Z,11.47
2018-09-17T18:43:14.026Z,8.57
2018-09-17T18:45:42.562Z,7.47
2018-09-17T18:48:11.180Z,10.07
2018-09-17T18:50:39.679Z,9.00
2018-09-17T18:53:08.213Z,6.17
2018-09-17T18:55:36.789Z,5.73
2018-09-17T18:58:05.306Z,4.97
2018-09-17T19:00:33.811Z,6.33
2018-09-17T19:03:02.353Z,6.20
2018-09-17T19:05:30.877Z,5.97
2018-09-17T19:07:59.426Z,5.97
2018-09-17T19:10:27.948Z,7.23
2018-09-17T19:12:56.493Z,6.53
2018-09-17T19:15:30.446Z,7.80
2018-09-17T19:18:04.421Z,7.63
2018-09-17T19:20:33.070Z,9.03
2018-09-17T19:23:06.922Z,7.30
2018-09-17T19:25:35.478Z,8.67
2018-09-17T19:28:09.412Z,8.47
2018-09-17T19:30:37.934Z,5.50
2018-09-17T19:33:06.485Z,5.13
2018-09-17T19:35:35.053Z,4.07
2018-09-17T19:38:09.246Z,3.97
2018-09-17T19:40:37.762Z,7.47
2018-09-17T19:43:06.315Z,4.87
2018-09-17T19:45:40.079Z,5.77
2018-09-17T19:48:08.688Z,7.40
2018-09-17T19:50:42.520Z,7.40
2018-09-17T19:53:11.097Z,7.57
2018-09-17T19:55:39.716Z,6.17
2018-09-17T19:58:13.958Z,8.97
2018-09-17T20:00:42.523Z,5.47
2018-09-17T20:03:11.010Z,6.83
2018-09-17T20:05:44.781Z,9.67
2018-09-17T20:08:13.414Z,8.97
2018-09-17T20:10:41.995Z,5.77
2018-09-17T20:13:10.513Z,9.17
2018-09-17T20:15:39.027Z,5.40
2018-09-17T20:18:07.558Z,12.43
2018-09-17T20:20:36.361Z,7.83
2018-09-17T20:23:04.920Z,5.07
2018-09-17T20:25:33.407Z,8.17
2018-09-17T20:28:01.985Z,6.83
2018-09-17T20:30:30.534Z,8.83
2018-09-17T20:32:59.177Z,8.17
2018-09-17T20:35:27.746Z,5.07
2018-09-17T20:37:56.280Z,8.30
2018-09-17T20:40:24.890Z,7.17
2018-09-17T20:42:53.391Z,6.90
2018-09-17T20:45:21.921Z,7.03
2018-09-17T20:47:50.594Z,7.13
2018-09-17T20:50:19.134Z,6.60
2018-09-17T20:52:47.711Z,6.00
2018-09-17T20:55:16.283Z,7.67
2018-09-17T20:57:45.182Z,7.00
2018-09-17T21:00:13.761Z,7.03
2018-09-17T21:02:42.378Z,5.70
2018-09-17T21:05:10.859Z,8.80
2018-09-17T21:07:39.464Z,6.73
2018-09-17T21:10:08.033Z,6.73
2018-09-17T21:12:36.685Z,6.23
2018-09-17T21:15:05.162Z,10.13
2018-09-17T21:17:33.658Z,4.87
2018-09-17T21:20:02.330Z,9.20
2018-09-17T21:22:30.870Z,8.43
2018-09-17T21:24:59.529Z,4.17
2018-09-17T21:27:28.049Z,8.37
2018-09-17T21:29:56.569Z,7.23
2018-09-17T21:32:25.156Z,9.43
2018-09-17T21:34:53.928Z,4.10
2018-09-17T21:37:22.495Z,4.60
2018-09-17T21:39:51.001Z,3.67
2018-09-17T21:42:19.510Z,7.10
2018-09-17T21:44:48.024Z,4.13
2018-09-17T21:47:16.558Z,7.10
2018-09-17T21:49:45.106Z,8.50
2018-09-17T21:52:13.621Z,5.00
2018-09-17T21:54:42.140Z,5.97
2018-09-17T21:57:10.953Z,6.73
2018-09-17T21:59:39.538Z,6.40
2018-09-17T22:02:08.074Z,7.87
2018-09-17T22:04:37.015Z,6.10
2018-09-17T22:07:05.633Z,5.97
2018-09-17T22:09:34.133Z,6.23
2018-09-17T22:12:02.669Z,6.23
2018-09-17T22:14:31.252Z,9.57
2018-09-17T22:16:59.893Z,4.13
2018-09-17T22:19:28.438Z,8.07
2018-09-17T22:21:56.950Z,6.33
2018-09-17T22:24:25.513Z,6.07
2018-09-17T22:26:54.031Z,4.00
2018-09-17T22:29:22.529Z,4.80
2018-09-17T22:31:51.143Z,7.70
2018-09-17T22:34:19.679Z,4.57
2018-09-17T22:36:48.246Z,5.70
2018-09-17T22:39:16.770Z,8.50
2018-09-17T22:41:59.949Z,7.33
2018-09-17T22:44:28.513Z,4.13
2018-09-17T22:46:57.119Z,9.40
2018-09-17T22:49:25.692Z,9.30
2018-09-17T22:51:54.276Z,11.97
2018-09-17T22:54:22.773Z,8.10
2018-09-17T22:56:51.294Z,7.87
2018-09-17T22:59:19.817Z,6.80
2018-09-17T23:01:48.378Z,7.90
2018-09-17T23:04:16.927Z,8.30
2018-09-17T23:06:45.429Z,7.50
2018-09-17T23:09:13.929Z,6.53
2018-09-17T23:11:42.465Z,6.97
2018-09-17T23:14:10.973Z,12.37
2018-09-17T23:16:39.484Z,8.67
2018-09-17T23:19:07.982Z,8.23
2018-09-17T23:21:36.486Z,5.43
2018-09-17T23:24:05.005Z,8.27
2018-09-17T23:26:33.730Z,10.50
2018-09-17T23:29:02.225Z,7.33
2018-09-17T23:31:30.773Z,7.00
2018-09-17T23:33:59.302Z,7.33
2018-09-17T23:36:27.834Z,5.93
2018-09-17T23:38:56.360Z,10.77
2018-09-17T23:41:24.857Z,6.03
2018-09-17T23:43:53.377Z,7.33
2018-09-17T23:46:21.893Z,5.37
2018-09-17T23:48:50.441Z,5.20
2018-09-17T23:51:18.950Z,10.37
2018-09-17T23:53:47.445Z,5.50
2018-09-17T23:56:15.964Z,7.70
2018-09-17T23:58:44.478Z,6.27
